Anzoras — EAZC — position and weather

sailwx.info

Track history (hours):
 
Tides and Currents Weather Stations Pressure Air Temp Water Temp Dewpoint Dewpoint Depression Visibility Wind Speed Wind Dir Waves Ship Positions

Anzoras

Last reported at 2016-Jul-20 13:14 UTC. Time now 2016-Jul-28 04:45 UTC.
Position N 36°44' E 005°09'.

Length 100 m; draft 4.3 m.

Type: Cargo ship. MMSI: 224376000.

Date/timePositionNaut miles runAvg speedWind from/ knotsBaromVisibWave heightAir tempDewpointWater temp
2016-Jul-20 13:14N 36°44' E 005°09'0 0.0
2016-Jul-20 04:32N 36°44' E 005°09'0 0.0
2016-Jul-20 03:05N 36°44' E 005°09'0 0.0
2016-Jul-20 02:29N 36°44' E 005°09'112 5.1
2016-Jul-19 04:31N 37°00' E 002°52'1610.9
2016-Jul-19 03:04N 36°58' E 002°32'6010.5
2016-Jul-18 21:19N 36°48' E 001°18'810.5
2016-Jul-18 20:33N 36°47' E 001°08'1110.6
2016-Jul-18 19:33N 36°45' E 000°55'1310.8
2016-Jul-18 18:23N 36°43' E 000°39'6610.8
2016-Jul-18 12:13N 36°33' W 000°43'22710.5
2016-Jul-17 14:33N 35°59' W 005°21'226 7.8
2016-Jul-16 09:23N 37°24' W 009°42'910.8
2016-Jul-16 08:33N 37°33' W 009°45'1111.0
2016-Jul-16 07:33N 37°44' W 009°48'1111.0
2016-Jul-16 06:33N 37°55' W 009°51'2311.6
2016-Jul-16 04:33N 38°17' W 009°58'1212.1
2016-Jul-16 03:33N 38°29' W 010°01'1212.0
2016-Jul-16 02:33N 38°41' W 010°05'1211.8
2016-Jul-16 01:33N 38°53' W 010°05'1211.7
2016-Jul-16 00:33N 39°04' W 010°05'  
Track history (hours):
 
Tides and Currents Weather Stations Pressure Air Temp Water Temp Dewpoint Dewpoint Depression Visibility Wind Speed Wind Dir Waves Ship Positions

Anzoras

Last reported at 2016-Jul-20 13:14 UTC. Time now 2016-Jul-28 04:45 UTC.
Position N 36°44' E 005°09'.

Length 100 m; draft 4.3 m.

Type: Cargo ship. MMSI: 224376000.

Date/timePositionNaut miles runAvg speedWind from/ knotsBaromVisibWave heightAir tempDewpointWater temp
2016-Jul-20 13:14N 36°44' E 005°09'0 0.0
2016-Jul-20 04:32N 36°44' E 005°09'0 0.0
2016-Jul-20 03:05N 36°44' E 005°09'0 0.0
2016-Jul-20 02:29N 36°44' E 005°09'112 5.1
2016-Jul-19 04:31N 37°00' E 002°52'1610.9
2016-Jul-19 03:04N 36°58' E 002°32'6010.5
2016-Jul-18 21:19N 36°48' E 001°18'810.5
2016-Jul-18 20:33N 36°47' E 001°08'1110.6
2016-Jul-18 19:33N 36°45' E 000°55'1310.8
2016-Jul-18 18:23N 36°43' E 000°39'6610.8
2016-Jul-18 12:13N 36°33' W 000°43'22710.5
2016-Jul-17 14:33N 35°59' W 005°21'226 7.8
2016-Jul-16 09:23N 37°24' W 009°42'910.8
2016-Jul-16 08:33N 37°33' W 009°45'1111.0
2016-Jul-16 07:33N 37°44' W 009°48'1111.0
2016-Jul-16 06:33N 37°55' W 009°51'2311.6
2016-Jul-16 04:33N 38°17' W 009°58'1212.1
2016-Jul-16 03:33N 38°29' W 010°01'1212.0
2016-Jul-16 02:33N 38°41' W 010°05'1211.8
2016-Jul-16 01:33N 38°53' W 010°05'1211.7
2016-Jul-16 00:33N 39°04' W 010°05'  

Dump ship's entire track history